createdAt,value
2019-01-30T00:04:11.172Z,98713.22
2019-01-30T00:09:16.218Z,98697.29
2019-01-30T00:14:21.709Z,98690.20
2019-01-30T00:19:27.084Z,98690.20
2019-01-30T00:24:33.906Z,98687.59
2019-01-30T00:29:44.062Z,98682.37
2019-01-30T00:34:49.368Z,98677.89
2019-01-30T00:39:54.487Z,98666.40
2019-01-30T00:44:59.577Z,98655.16
2019-01-30T00:50:08.066Z,98645.20
2019-01-30T00:55:13.380Z,98640.23
2019-01-30T01:00:20.333Z,98638.16
2019-01-30T01:05:25.387Z,98633.95
2019-01-30T01:10:31.299Z,98636.27
2019-01-30T01:15:36.510Z,98633.64
2019-01-30T01:20:41.687Z,98637.03
2019-01-30T01:25:46.837Z,98629.69
2019-01-30T01:30:51.940Z,98628.13
2019-01-30T01:35:59.675Z,98615.56
2019-01-30T01:41:05.440Z,98615.04
2019-01-30T01:46:10.645Z,98614.75
2019-01-30T01:51:15.815Z,98619.17
2019-01-30T01:56:20.946Z,98603.23
2019-01-30T02:01:26.233Z,98600.34
2019-01-30T02:06:31.474Z,98595.36
2019-01-30T02:11:36.749Z,98592.75
2019-01-30T02:16:42.244Z,98591.68
2019-01-30T02:21:49.583Z,98582.77
2019-01-30T02:26:54.875Z,98576.77
2019-01-30T02:32:00.796Z,98575.42
2019-01-30T02:37:05.800Z,98564.17
2019-01-30T02:42:11.272Z,98562.33
2019-01-30T02:47:16.363Z,98549.52
2019-01-30T02:52:21.706Z,98534.38
2019-01-30T02:57:26.759Z,98541.19
2019-01-30T03:02:31.868Z,98540.42
2019-01-30T03:07:39.262Z,98540.15
2019-01-30T03:12:44.378Z,98531.27
2019-01-30T03:17:49.593Z,98526.55
2019-01-30T03:22:54.846Z,98515.08
2019-01-30T03:28:01.688Z,98510.16
2019-01-30T03:33:06.952Z,98513.01
2019-01-30T03:38:11.967Z,98514.57
2019-01-30T03:43:17.112Z,98510.64
2019-01-30T03:48:22.257Z,98504.64
2019-01-30T03:53:27.404Z,98498.66
2019-01-30T03:58:32.680Z,98490.30
2019-01-30T04:03:37.796Z,98490.30
2019-01-30T04:08:43.031Z,98486.08
2019-01-30T04:13:48.185Z,98484.53
2019-01-30T04:18:53.334Z,98472.78
2019-01-30T04:24:00.543Z,98461.55
2019-01-30T04:29:08.154Z,98455.58
2019-01-30T04:34:16.144Z,98448.54
2019-01-30T04:39:23.170Z,98437.62
2019-01-30T04:44:29.070Z,98436.02
2019-01-30T04:49:34.612Z,98431.05
2019-01-30T04:54:43.799Z,98431.56
2019-01-30T04:59:51.107Z,98426.34
2019-01-30T05:04:57.764Z,98426.88
2019-01-30T05:10:08.162Z,98414.38
2019-01-30T05:15:32.550Z,98411.75
2019-01-30T05:20:40.430Z,98412.82
2019-01-30T05:25:47.972Z,98413.31
2019-01-30T05:30:53.904Z,98416.19
2019-01-30T05:36:00.100Z,98413.85
2019-01-30T05:41:05.608Z,98419.31
2019-01-30T05:46:11.400Z,98420.64
2019-01-30T05:51:17.410Z,98409.92
2019-01-30T05:56:26.397Z,98408.86
2019-01-30T06:01:39.219Z,98393.22
2019-01-30T06:06:50.574Z,98389.30
2019-01-30T06:11:59.475Z,98380.67
2019-01-30T06:17:09.727Z,98373.36
2019-01-30T06:22:15.571Z,98380.16
2019-01-30T06:27:22.639Z,98384.05
2019-01-30T06:32:30.225Z,98379.88
2019-01-30T06:37:37.273Z,98379.88
2019-01-30T06:42:42.500Z,98379.59
2019-01-30T06:47:48.589Z,98382.48
2019-01-30T06:52:54.971Z,98373.11
2019-01-30T06:57:59.943Z,98369.47
2019-01-30T07:03:05.168Z,98374.70
2019-01-30T07:08:10.207Z,98368.95
2019-01-30T07:13:15.497Z,98366.11
2019-01-30T07:18:20.524Z,98359.83
2019-01-30T07:23:26.063Z,98363.74
2019-01-30T07:28:31.264Z,98367.96
2019-01-30T07:33:37.046Z,98363.55
2019-01-30T07:38:42.372Z,98363.55
2019-01-30T07:43:47.720Z,98362.03
2019-01-30T07:48:53.308Z,98372.98
2019-01-30T07:53:58.489Z,98370.67
2019-01-30T07:59:03.818Z,98364.42
2019-01-30T08:04:08.884Z,98370.95
2019-01-30T08:09:15.270Z,98367.28
2019-01-30T08:14:20.442Z,98377.73
2019-01-30T08:19:26.195Z,98379.58
2019-01-30T08:24:31.765Z,98371.21
2019-01-30T08:29:37.603Z,98365.99
2019-01-30T08:34:43.251Z,98361.57
2019-01-30T08:39:48.766Z,98357.66
2019-01-30T08:44:54.136Z,98369.41
2019-01-30T08:49:59.543Z,98364.95
2019-01-30T08:55:05.558Z,98372.25
2019-01-30T09:00:13.946Z,98370.41
2019-01-30T09:05:19.362Z,98375.87
2019-01-30T09:10:25.443Z,98374.55
2019-01-30T09:15:30.673Z,98366.95
2019-01-30T09:20:36.224Z,98364.83
2019-01-30T09:25:41.486Z,98366.10
2019-01-30T09:30:46.724Z,98356.67
2019-01-30T09:35:51.976Z,98357.16
2019-01-30T09:40:57.248Z,98369.47
2019-01-30T09:46:02.646Z,98367.53
2019-01-30T09:51:07.903Z,98366.67
2019-01-30T09:56:15.491Z,98356.11
2019-01-30T10:01:20.076Z,98361.30
2019-01-30T10:06:25.428Z,98352.67
2019-01-30T10:11:30.848Z,98339.49
2019-01-30T10:16:36.670Z,98333.12
2019-01-30T10:21:47.251Z,98336.69
2019-01-30T10:26:54.623Z,98323.03
2019-01-30T10:32:00.080Z,98312.63
2019-01-30T10:37:05.723Z,98315.47
2019-01-30T10:42:10.881Z,98323.55
2019-01-30T10:47:18.034Z,98316.04
2019-01-30T10:52:23.863Z,98301.33
2019-01-30T10:57:29.176Z,98295.33
2019-01-30T11:02:36.543Z,98296.72
2019-01-30T11:07:41.855Z,98289.76
2019-01-30T11:12:47.605Z,98292.88
2019-01-30T11:17:59.213Z,98282.97
2019-01-30T11:23:05.579Z,98276.38
2019-01-30T11:28:11.521Z,98273.72
2019-01-30T11:33:17.237Z,98260.70
2019-01-30T11:38:22.540Z,98261.84
2019-01-30T11:43:28.249Z,98267.58
2019-01-30T11:48:33.903Z,98259.17
2019-01-30T11:53:39.645Z,98260.71
2019-01-30T11:58:46.510Z,98253.02
2019-01-30T12:03:51.859Z,98230.95
2019-01-30T12:08:57.497Z,98235.38
2019-01-30T12:14:04.027Z,98229.10
2019-01-30T12:19:09.321Z,98231.90
2019-01-30T12:24:15.051Z,98232.17
2019-01-30T12:29:20.505Z,98227.63
2019-01-30T12:34:28.404Z,98232.72
2019-01-30T12:39:37.763Z,98233.02
2019-01-30T12:44:43.231Z,98224.94
2019-01-30T12:49:48.941Z,98215.73
2019-01-30T12:54:55.043Z,98223.12
2019-01-30T13:00:07.277Z,98215.89
2019-01-30T13:05:12.883Z,98204.19
2019-01-30T13:10:20.054Z,98199.02
2019-01-30T13:15:26.707Z,98200.02
2019-01-30T13:20:32.119Z,98201.84
2019-01-30T13:25:37.952Z,98198.12
2019-01-30T13:30:44.961Z,98202.30
2019-01-30T13:35:50.606Z,98216.13
2019-01-30T13:40:55.959Z,98205.09
2019-01-30T13:46:05.422Z,98194.37
2019-01-30T13:51:17.995Z,98198.79
2019-01-30T13:56:23.760Z,98213.95
2019-01-30T14:01:29.593Z,98207.22
2019-01-30T14:06:36.316Z,98211.83
2019-01-30T14:11:47.091Z,98202.61
2019-01-30T14:16:52.409Z,98201.95
2019-01-30T14:22:09.542Z,98195.90
2019-01-30T14:27:15.783Z,98194.63
2019-01-30T14:32:21.191Z,98193.83
2019-01-30T14:37:26.942Z,98186.42
2019-01-30T14:42:32.195Z,98194.22
2019-01-30T14:47:38.007Z,98190.80
2019-01-30T14:52:44.360Z,98188.82
2019-01-30T14:57:51.906Z,98184.78
2019-01-30T15:03:00.388Z,98187.70
2019-01-30T15:08:06.162Z,98185.91
2019-01-30T15:13:12.479Z,98186.39
2019-01-30T15:18:18.795Z,98180.58
2019-01-30T15:23:25.577Z,98179.44
2019-01-30T15:28:30.773Z,98186.38
2019-01-30T15:33:37.102Z,98188.61
2019-01-30T15:38:42.371Z,98181.67
2019-01-30T15:43:47.683Z,98179.59
2019-01-30T15:48:53.010Z,98189.11
2019-01-30T15:53:58.279Z,98196.98
2019-01-30T15:59:05.985Z,98187.34
2019-01-30T16:04:11.557Z,98200.94
2019-01-30T16:09:16.788Z,98201.99
2019-01-30T16:14:22.313Z,98210.59
2019-01-30T16:19:27.856Z,98211.39
2019-01-30T16:24:33.081Z,98209.63
2019-01-30T16:29:38.379Z,98209.42
2019-01-30T16:34:43.981Z,98213.64
2019-01-30T16:39:49.179Z,98219.36
2019-01-30T16:44:56.129Z,98223.83
2019-01-30T16:50:02.093Z,98230.62
2019-01-30T16:55:07.499Z,98234.86
2019-01-30T17:00:24.597Z,98231.47
2019-01-30T17:05:30.805Z,98237.73
2019-01-30T17:10:36.076Z,98238.53
2019-01-30T17:15:41.669Z,98239.59
2019-01-30T17:20:47.299Z,98240.66
2019-01-30T17:25:52.862Z,98226.25
2019-01-30T17:31:13.745Z,98233.83
2019-01-30T17:36:19.757Z,98230.13
2019-01-30T17:41:25.167Z,98234.96
2019-01-30T17:46:31.049Z,98230.23
2019-01-30T17:51:36.260Z,98230.75
2019-01-30T17:56:41.687Z,98231.55
2019-01-30T18:01:47.416Z,98231.23
2019-01-30T18:06:52.975Z,98241.46
2019-01-30T18:11:58.251Z,98230.72
2019-01-30T18:17:03.585Z,98238.87
2019-01-30T18:22:09.155Z,98243.30
2019-01-30T18:27:14.591Z,98243.02
2019-01-30T18:32:20.573Z,98240.89
2019-01-30T18:37:26.362Z,98236.70
2019-01-30T18:42:36.343Z,98239.02
2019-01-30T18:47:41.877Z,98243.13
2019-01-30T18:52:47.359Z,98242.08
2019-01-30T18:57:52.705Z,98254.69
2019-01-30T19:02:59.463Z,98251.53
2019-01-30T19:08:05.085Z,98253.61
2019-01-30T19:13:10.947Z,98249.38
2019-01-30T19:18:37.443Z,98251.91
2019-01-30T19:23:43.823Z,98249.86
2019-01-30T19:28:52.078Z,98249.06
2019-01-30T19:33:57.842Z,98251.20
2019-01-30T19:39:04.039Z,98249.86
2019-01-30T19:44:13.729Z,98255.81
2019-01-30T19:49:21.525Z,98254.76
2019-01-30T19:54:28.399Z,98262.59
2019-01-30T19:59:33.579Z,98258.35
2019-01-30T20:04:38.909Z,98263.63
2019-01-30T20:09:51.835Z,98264.88
2019-01-30T20:14:58.643Z,98269.36
2019-01-30T20:20:04.747Z,98278.02
2019-01-30T20:25:14.031Z,98270.75
2019-01-30T20:30:21.097Z,98273.34
2019-01-30T20:35:26.492Z,98281.47
2019-01-30T20:40:47.246Z,98285.12
2019-01-30T20:45:54.651Z,98285.37
2019-01-30T20:51:00.522Z,98296.63
2019-01-30T20:56:06.552Z,98295.55
2019-01-30T21:01:12.565Z,98297.12
2019-01-30T21:06:18.100Z,98294.03
2019-01-30T21:11:23.401Z,98298.71
2019-01-30T21:16:28.711Z,98299.88
2019-01-30T21:21:39.096Z,98304.88
2019-01-30T21:26:44.536Z,98302.67
2019-01-30T21:31:50.265Z,98297.97
2019-01-30T21:36:55.553Z,98302.42
2019-01-30T21:42:08.717Z,98309.45
2019-01-30T21:47:15.849Z,98314.19
2019-01-30T21:52:23.973Z,98311.33
2019-01-30T21:57:29.190Z,98318.53
2019-01-30T22:02:37.585Z,98315.67
2019-01-30T22:07:45.863Z,98318.07
2019-01-30T22:12:53.447Z,98312.80
2019-01-30T22:17:58.673Z,98319.55
2019-01-30T22:23:05.424Z,98319.53
2019-01-30T22:28:10.783Z,98331.41
2019-01-30T22:33:18.897Z,98326.73
2019-01-30T22:38:23.985Z,98330.64
2019-01-30T22:43:29.291Z,98340.16
2019-01-30T22:48:34.776Z,98344.30
2019-01-30T22:53:42.681Z,98350.05
2019-01-30T22:58:49.065Z,98347.45
2019-01-30T23:04:42.063Z,98350.62
2019-01-30T23:10:22.091Z,98349.89
2019-01-30T23:15:49.222Z,98351.20
2019-01-30T23:21:00.311Z,98356.96
2019-01-30T23:26:18.924Z,98344.19
2019-01-30T23:32:23.861Z,98344.73
2019-01-30T23:38:03.400Z,98352.58
2019-01-30T23:43:17.400Z,98348.20
2019-01-30T23:49:10.838Z,98355.23
2019-01-30T23:55:04.017Z,98345.02
